TAF Text Data
IDs:
Format:
Raw Decoded Include METAR

Data at: 1744 UTC 23 Jan 2019

KAMA 231653Z 26010KT 10SM CLR 04/M13 A3014 RMK AO2 SLP217 T00391128

KAMA 231720Z 2318/2418 26010KT P6SM SKC
  FM241000 01011KT P6SM SCT250